createdAt,value
2023-03-22T00:02:26.471Z,9.70
2023-03-22T00:05:30.367Z,9.70
2023-03-22T00:08:31.947Z,9.80
2023-03-22T00:11:34.134Z,9.90
2023-03-22T00:14:36.155Z,9.90
2023-03-22T00:17:38.186Z,10.00
2023-03-22T00:20:46.638Z,10.10
2023-03-22T00:23:48.270Z,10.10
2023-03-22T00:26:49.907Z,10.20
2023-03-22T00:29:54.520Z,10.20
2023-03-22T00:32:56.083Z,10.20
2023-03-22T00:36:00.704Z,10.20
2023-03-22T00:39:02.287Z,10.30
2023-03-22T00:42:05.790Z,10.30
2023-03-22T00:45:10.264Z,10.30
2023-03-22T00:48:12.537Z,10.30
2023-03-22T00:51:15.427Z,10.30
2023-03-22T00:54:17.342Z,10.30
2023-03-22T00:57:19.010Z,10.30
2023-03-22T01:00:20.812Z,10.30
2023-03-22T01:03:22.589Z,10.30
2023-03-22T01:06:24.187Z,10.30
2023-03-22T01:09:28.804Z,10.30
2023-03-22T01:12:30.681Z,10.20
2023-03-22T01:15:32.742Z,10.20
2023-03-22T01:18:35.590Z,10.20
2023-03-22T01:21:37.220Z,10.20
2023-03-22T01:24:38.818Z,10.20
2023-03-22T01:27:40.507Z,10.20
2023-03-22T01:30:42.662Z,10.20
2023-03-22T01:33:44.459Z,10.20
2023-03-22T01:36:46.158Z,10.10
2023-03-22T01:39:48.115Z,10.10
2023-03-22T01:42:49.696Z,10.10
2023-03-22T01:45:52.813Z,10.10
2023-03-22T01:48:54.572Z,10.10
2023-03-22T01:52:00.794Z,10.10
2023-03-22T01:55:04.464Z,10.10
2023-03-22T01:58:06.684Z,10.10
2023-03-22T02:01:10.970Z,10.10
2023-03-22T02:04:23.309Z,10.10
2023-03-22T02:07:27.902Z,10.10
2023-03-22T02:10:29.648Z,10.10
2023-03-22T02:13:48.006Z,10.20
2023-03-22T02:17:35.433Z,10.20
2023-03-22T02:20:55.825Z,10.10
2023-03-22T02:24:27.833Z,10.10
2023-03-22T02:28:07.969Z,10.10
2023-03-22T02:31:48.803Z,10.00
2023-03-22T02:35:27.669Z,9.90
2023-03-22T02:39:07.240Z,9.90
2023-03-22T02:42:27.548Z,9.80
2023-03-22T02:45:42.207Z,9.90
2023-03-22T02:48:59.840Z,9.90
2023-03-22T02:52:12.308Z,9.90
2023-03-22T02:55:21.062Z,9.90
2023-03-22T02:58:48.150Z,9.90
2023-03-22T03:01:53.141Z,10.00
2023-03-22T03:04:56.945Z,10.00
2023-03-22T03:08:02.361Z,10.00
2023-03-22T03:11:04.168Z,10.00
2023-03-22T03:14:05.748Z,10.00
2023-03-22T03:17:28.804Z,10.00
2023-03-22T03:20:39.763Z,10.00
2023-03-22T03:23:52.997Z,10.00
2023-03-22T03:27:17.633Z,10.00
2023-03-22T03:30:32.769Z,10.00
2023-03-22T03:33:37.782Z,10.00
2023-03-22T03:36:44.471Z,10.00
2023-03-22T03:40:10.850Z,10.00
2023-03-22T03:43:14.043Z,9.90
2023-03-22T03:46:16.267Z,9.90
2023-03-22T03:49:19.112Z,9.90
2023-03-22T03:52:24.428Z,9.90
2023-03-22T03:55:27.576Z,9.90
2023-03-22T03:58:30.595Z,9.90
2023-03-22T04:01:32.187Z,9.90
2023-03-22T04:04:34.636Z,9.80
2023-03-22T04:07:36.814Z,9.80
2023-03-22T04:10:38.773Z,9.80
2023-03-22T04:13:40.462Z,9.80
2023-03-22T04:16:42.008Z,9.80
2023-03-22T04:19:45.611Z,9.80
2023-03-22T04:22:48.839Z,9.80
2023-03-22T04:25:51.788Z,9.80
2023-03-22T04:28:53.365Z,9.80
2023-03-22T04:31:55.003Z,9.80
2023-03-22T04:34:56.543Z,9.70
2023-03-22T04:37:59.186Z,9.70
2023-03-22T04:41:00.726Z,9.70
2023-03-22T04:44:03.296Z,9.70
2023-03-22T04:47:04.976Z,9.70
2023-03-22T04:50:08.185Z,9.60
2023-03-22T04:53:09.810Z,9.60
2023-03-22T04:56:13.347Z,9.60
2023-03-22T04:59:17.742Z,9.50
2023-03-22T05:02:19.395Z,9.50
2023-03-22T05:05:21.006Z,9.40
2023-03-22T05:08:26.692Z,9.30
2023-03-22T05:11:28.317Z,9.30
2023-03-22T05:14:29.874Z,9.20
2023-03-22T05:17:31.433Z,9.20
2023-03-22T05:20:33.030Z,9.20
2023-03-22T05:23:34.623Z,9.10
2023-03-22T05:26:37.978Z,9.10
2023-03-22T05:29:44.722Z,9.10
2023-03-22T05:32:47.341Z,9.10
2023-03-22T05:35:50.421Z,9.10
2023-03-22T05:38:52.355Z,9.00
2023-03-22T05:41:54.094Z,9.00
2023-03-22T05:44:55.752Z,9.00
2023-03-22T05:47:57.345Z,9.00
2023-03-22T05:50:59.044Z,9.00
2023-03-22T05:54:00.934Z,9.00
2023-03-22T05:57:02.481Z,9.00
2023-03-22T06:00:07.229Z,8.90
2023-03-22T06:03:08.911Z,8.90
2023-03-22T06:06:10.806Z,8.90
2023-03-22T06:09:17.643Z,8.80
2023-03-22T06:12:24.473Z,8.70
2023-03-22T06:15:26.142Z,8.70
2023-03-22T06:18:28.370Z,8.80
2023-03-22T06:21:30.340Z,8.80
2023-03-22T06:24:31.912Z,8.90
2023-03-22T06:27:33.856Z,8.90
2023-03-22T06:30:35.527Z,9.00
2023-03-22T06:33:37.445Z,9.10
2023-03-22T06:36:39.307Z,9.20
2023-03-22T06:39:40.963Z,9.30
2023-03-22T06:42:42.529Z,9.40
2023-03-22T06:45:46.821Z,9.60
2023-03-22T06:48:48.463Z,9.70
2023-03-22T06:51:50.255Z,9.90
2023-03-22T06:54:51.831Z,10.20
2023-03-22T06:57:53.428Z,10.30
2023-03-22T07:00:58.055Z,10.40
2023-03-22T07:03:59.677Z,10.30
2023-03-22T07:07:01.309Z,10.40
2023-03-22T07:10:03.090Z,10.40
2023-03-22T07:13:04.771Z,10.40
2023-03-22T07:16:07.157Z,10.30
2023-03-22T07:19:09.053Z,10.40
2023-03-22T07:22:10.711Z,10.40
2023-03-22T07:25:12.748Z,10.50
2023-03-22T07:28:15.322Z,10.60
2023-03-22T07:31:17.496Z,10.80
2023-03-22T07:34:19.067Z,11.00
2023-03-22T07:37:20.759Z,11.10
2023-03-22T07:40:23.103Z,11.20
2023-03-22T07:43:25.388Z,11.40
2023-03-22T07:46:27.141Z,11.60
2023-03-22T07:49:28.882Z,11.70
2023-03-22T07:52:30.665Z,11.80
2023-03-22T07:55:32.249Z,12.00
2023-03-22T07:58:33.875Z,12.10
2023-03-22T08:01:35.534Z,12.30
2023-03-22T08:04:37.587Z,12.40
2023-03-22T08:07:39.227Z,12.50
2023-03-22T08:10:41.076Z,12.60
2023-03-22T08:13:42.827Z,12.90
2023-03-22T08:16:44.774Z,13.00
2023-03-22T08:19:46.481Z,13.00
2023-03-22T08:22:48.352Z,13.00
2023-03-22T08:25:50.681Z,13.10
2023-03-22T08:28:52.317Z,13.10
2023-03-22T08:31:54.120Z,13.10
2023-03-22T08:34:56.011Z,13.30
2023-03-22T08:37:57.765Z,13.50
2023-03-22T08:40:59.367Z,13.60
2023-03-22T08:44:01.006Z,13.60
2023-03-22T08:47:03.265Z,13.80
2023-03-22T08:50:05.488Z,13.80
2023-03-22T08:53:07.133Z,13.90
2023-03-22T08:56:09.545Z,14.00
2023-03-22T08:59:11.160Z,14.00
2023-03-22T09:02:13.013Z,14.00
2023-03-22T09:05:14.762Z,14.10
2023-03-22T09:08:19.417Z,14.20
2023-03-22T09:11:21.769Z,14.30
2023-03-22T09:14:23.480Z,14.40
2023-03-22T09:17:25.138Z,14.50
2023-03-22T09:20:27.242Z,14.60
2023-03-22T09:23:30.274Z,14.60
2023-03-22T09:26:32.035Z,14.70
2023-03-22T09:29:33.998Z,14.80
2023-03-22T09:32:35.858Z,14.90
2023-03-22T09:35:42.553Z,15.00
2023-03-22T09:38:45.254Z,15.10
2023-03-22T09:41:54.336Z,15.20
2023-03-22T09:44:57.355Z,15.10
2023-03-22T09:47:59.739Z,15.30
2023-03-22T09:51:04.561Z,15.30
2023-03-22T09:54:19.579Z,15.40
2023-03-22T09:57:34.884Z,15.40
2023-03-22T10:00:56.992Z,15.40
2023-03-22T10:04:47.181Z,15.40
2023-03-22T10:08:15.856Z,15.20
2023-03-22T10:11:49.054Z,15.10
2023-03-22T10:15:00.246Z,15.20
2023-03-22T10:18:06.163Z,15.10
2023-03-22T10:21:17.266Z,15.20
2023-03-22T10:24:26.124Z,15.30
2023-03-22T10:27:30.580Z,15.40
2023-03-22T10:30:37.769Z,15.30
2023-03-22T10:33:50.344Z,15.30
2023-03-22T10:36:53.161Z,15.40
2023-03-22T10:39:56.645Z,15.70
2023-03-22T10:43:09.790Z,15.90
2023-03-22T10:46:18.619Z,15.80
2023-03-22T10:49:34.076Z,15.90
2023-03-22T10:52:45.272Z,16.10
2023-03-22T10:55:46.998Z,16.20
2023-03-22T10:58:50.417Z,16.00
2023-03-22T11:01:52.680Z,16.00
2023-03-22T11:04:57.212Z,16.00
2023-03-22T11:07:59.013Z,16.10
2023-03-22T11:11:00.929Z,16.30
2023-03-22T11:14:13.082Z,16.30
2023-03-22T11:17:19.645Z,16.30
2023-03-22T11:20:22.063Z,16.40
2023-03-22T11:23:25.246Z,16.40
2023-03-22T11:26:31.297Z,16.20
2023-03-22T11:30:22.607Z,16.40
2023-03-22T11:33:25.861Z,16.60
2023-03-22T11:36:29.224Z,16.80
2023-03-22T11:39:30.907Z,16.90
2023-03-22T11:42:34.529Z,17.00
2023-03-22T11:45:41.018Z,17.30
2023-03-22T11:48:44.820Z,17.40
2023-03-22T11:51:46.616Z,17.40
2023-03-22T11:54:48.910Z,17.50
2023-03-22T11:57:52.002Z,17.70
2023-03-22T12:00:58.660Z,17.80
2023-03-22T12:04:04.234Z,17.50
2023-03-22T12:07:16.602Z,17.50
2023-03-22T12:10:32.272Z,17.70
2023-03-22T12:13:51.239Z,17.90
2023-03-22T12:16:59.453Z,17.80
2023-03-22T12:20:12.728Z,17.90
2023-03-22T12:23:20.082Z,18.00
2023-03-22T12:26:27.751Z,18.20
2023-03-22T12:29:30.484Z,18.20
2023-03-22T12:32:48.788Z,18.10
2023-03-22T12:35:52.555Z,18.30
2023-03-22T12:38:57.035Z,18.30
2023-03-22T12:42:06.287Z,18.30
2023-03-22T12:45:38.110Z,18.40
2023-03-22T12:48:46.640Z,18.50
2023-03-22T12:51:51.652Z,18.60
2023-03-22T12:54:54.094Z,18.70
2023-03-22T12:57:56.692Z,18.80
2023-03-22T13:01:20.881Z,18.70
2023-03-22T13:04:35.934Z,18.60
2023-03-22T13:07:46.610Z,18.60
2023-03-22T13:11:01.284Z,18.50
2023-03-22T13:14:02.897Z,18.70
2023-03-22T13:17:07.456Z,18.80
2023-03-22T13:20:11.818Z,18.60
2023-03-22T13:23:26.994Z,18.50
2023-03-22T13:26:49.448Z,18.70
2023-03-22T13:29:54.003Z,18.90
2023-03-22T13:33:21.158Z,18.90
2023-03-22T13:36:25.059Z,19.00
2023-03-22T13:39:34.453Z,18.90
2023-03-22T13:42:39.816Z,18.70
2023-03-22T13:46:06.836Z,18.90
2023-03-22T13:49:42.677Z,19.00
2023-03-22T13:52:54.378Z,18.70
2023-03-22T13:55:56.333Z,19.00
2023-03-22T13:58:58.580Z,19.30
2023-03-22T14:02:11.983Z,19.30
2023-03-22T14:05:20.719Z,19.40
2023-03-22T14:08:28.312Z,19.40
2023-03-22T14:11:39.183Z,19.10
2023-03-22T14:14:48.795Z,18.90
2023-03-22T14:18:02.105Z,18.70
2023-03-22T14:21:09.331Z,18.50
